sensor_id;sensor_type;location;lat;lon;timestamp;pressure;altitude;pressure_sealevel;temperature;humidity
5913;BME280;2982;42.684;23.356;2023-04-04T00:01:44;93472.91;;;7.76;100.00
5913;BME280;2982;42.684;23.356;2023-04-04T00:04:09;93437.41;;;7.40;100.00
5913;BME280;2982;42.684;23.356;2023-04-04T00:06:35;93470.00;;;7.70;100.00
5913;BME280;2982;42.684;23.356;2023-04-04T00:09:00;93466.88;;;7.79;100.00
5913;BME280;2982;42.684;23.356;2023-04-04T00:11:25;93472.22;;;7.74;100.00
5913;BME280;2982;42.684;23.356;2023-04-04T00:13:51;93481.31;;;7.89;100.00
5913;BME280;2982;42.684;23.356;2023-04-04T00:16:16;93482.03;;;8.04;100.00
5913;BME280;2982;42.684;23.356;2023-04-04T00:18:41;93488.41;;;8.10;100.00
5913;BME280;2982;42.684;23.356;2023-04-04T00:21:07;93490.72;;;8.13;100.00
5913;BME280;2982;42.684;23.356;2023-04-04T00:23:32;93496.41;;;8.29;100.00
5913;BME280;2982;42.684;23.356;2023-04-04T00:25:57;93490.03;;;8.23;100.00
5913;BME280;2982;42.684;23.356;2023-04-04T00:28:22;93491.97;;;8.32;100.00
5913;BME280;2982;42.684;23.356;2023-04-04T00:30:48;93497.13;;;8.31;100.00
5913;BME280;2982;42.684;23.356;2023-04-04T00:33:14;93486.69;;;8.35;100.00
5913;BME280;2982;42.684;23.356;2023-04-04T00:35:39;93490.13;;;8.22;100.00
5913;BME280;2982;42.684;23.356;2023-04-04T00:38:05;93468.97;;;8.23;100.00
5913;BME280;2982;42.684;23.356;2023-04-04T00:40:30;93472.22;;;8.25;100.00
5913;BME280;2982;42.684;23.356;2023-04-04T00:42:55;93467.56;;;8.19;100.00
5913;BME280;2982;42.684;23.356;2023-04-04T00:45:21;93450.69;;;8.19;100.00
5913;BME280;2982;42.684;23.356;2023-04-04T00:47:46;93441.78;;;8.14;100.00
5913;BME280;2982;42.684;23.356;2023-04-04T00:50:12;93456.66;;;8.31;100.00
5913;BME280;2982;42.684;23.356;2023-04-04T00:52:37;93432.97;;;8.19;100.00
5913;BME280;2982;42.684;23.356;2023-04-04T00:55:03;93437.34;;;8.30;100.00
5913;BME280;2982;42.684;23.356;2023-04-04T00:57:29;93429.00;;;8.28;100.00
5913;BME280;2982;42.684;23.356;2023-04-04T00:59:56;93436.09;;;8.35;100.00
5913;BME280;2982;42.684;23.356;2023-04-04T01:02:23;93442.47;;;8.41;100.00
5913;BME280;2982;42.684;23.356;2023-04-04T01:04:48;93449.06;;;8.44;100.00
5913;BME280;2982;42.684;23.356;2023-04-04T01:07:14;93453.81;;;8.48;100.00
5913;BME280;2982;42.684;23.356;2023-04-04T01:09:39;93452.69;;;8.52;100.00
5913;BME280;2982;42.684;23.356;2023-04-04T01:12:05;93462.81;;;8.52;100.00
5913;BME280;2982;42.684;23.356;2023-04-04T01:14:31;93462.41;;;8.58;100.00
5913;BME280;2982;42.684;23.356;2023-04-04T01:16:57;93466.22;;;8.64;100.00
5913;BME280;2982;42.684;23.356;2023-04-04T01:19:29;93455.66;;;8.70;100.00
5913;BME280;2982;42.684;23.356;2023-04-04T01:21:56;93453.03;;;8.71;100.00
5913;BME280;2982;42.684;23.356;2023-04-04T01:24:24;93455.13;;;8.77;100.00
5913;BME280;2982;42.684;23.356;2023-04-04T01:26:52;93468.09;;;8.86;100.00
5913;BME280;2982;42.684;23.356;2023-04-04T01:29:17;93469.00;;;8.84;100.00
5913;BME280;2982;42.684;23.356;2023-04-04T01:31:48;93471.03;;;8.79;100.00
5913;BME280;2982;42.684;23.356;2023-04-04T01:34:35;93467.50;;;8.69;100.00
5913;BME280;2982;42.684;23.356;2023-04-04T01:37:23;93464.00;;;8.59;100.00
5913;BME280;2982;42.684;23.356;2023-04-04T01:40:15;93470.41;;;8.52;100.00
5913;BME280;2982;42.684;23.356;2023-04-04T01:42:43;93458.25;;;8.57;100.00
5913;BME280;2982;42.684;23.356;2023-04-04T01:45:09;93446.22;;;8.48;100.00
5913;BME280;2982;42.684;23.356;2023-04-04T01:47:39;93458.44;;;8.54;100.00
5913;BME280;2982;42.684;23.356;2023-04-04T01:50:06;93456.34;;;8.48;100.00
5913;BME280;2982;42.684;23.356;2023-04-04T01:52:31;93450.56;;;8.46;100.00
5913;BME280;2982;42.684;23.356;2023-04-04T01:54:57;93439.53;;;8.47;100.00
5913;BME280;2982;42.684;23.356;2023-04-04T01:57:22;93438.44;;;8.38;100.00
5913;BME280;2982;42.684;23.356;2023-04-04T01:59:47;93438.53;;;8.37;100.00
5913;BME280;2982;42.684;23.356;2023-04-04T02:02:13;93423.13;;;8.27;100.00
5913;BME280;2982;42.684;23.356;2023-04-04T02:04:38;93435.41;;;8.21;100.00
5913;BME280;2982;42.684;23.356;2023-04-04T02:07:03;93435.91;;;8.13;100.00
5913;BME280;2982;42.684;23.356;2023-04-04T02:09:29;93435.31;;;8.10;100.00
5913;BME280;2982;42.684;23.356;2023-04-04T02:11:54;93425.00;;;8.00;100.00
5913;BME280;2982;42.684;23.356;2023-04-04T02:14:19;93434.28;;;8.12;100.00
5913;BME280;2982;42.684;23.356;2023-04-04T02:16:45;93433.00;;;8.07;100.00
5913;BME280;2982;42.684;23.356;2023-04-04T02:19:10;93426.31;;;8.06;100.00
5913;BME280;2982;42.684;23.356;2023-04-04T02:21:35;93428.84;;;8.06;100.00
5913;BME280;2982;42.684;23.356;2023-04-04T02:24:00;93435.09;;;8.00;100.00
5913;BME280;2982;42.684;23.356;2023-04-04T02:26:26;93435.63;;;7.92;100.00
5913;BME280;2982;42.684;23.356;2023-04-04T02:28:51;93427.53;;;7.87;100.00
5913;BME280;2982;42.684;23.356;2023-04-04T02:31:16;93430.75;;;7.89;100.00
5913;BME280;2982;42.684;23.356;2023-04-04T02:33:42;93422.06;;;7.81;100.00
5913;BME280;2982;42.684;23.356;2023-04-04T02:36:07;93423.38;;;7.86;100.00
5913;BME280;2982;42.684;23.356;2023-04-04T02:38:32;93423.09;;;7.91;100.00
5913;BME280;2982;42.684;23.356;2023-04-04T02:40:58;93427.03;;;7.95;100.00
5913;BME280;2982;42.684;23.356;2023-04-04T02:43:23;93436.22;;;7.96;100.00
5913;BME280;2982;42.684;23.356;2023-04-04T02:45:48;93433.69;;;7.96;100.00
5913;BME280;2982;42.684;23.356;2023-04-04T02:48:13;93436.91;;;7.98;100.00
5913;BME280;2982;42.684;23.356;2023-04-04T02:50:39;93439.06;;;7.91;100.00
5913;BME280;2982;42.684;23.356;2023-04-04T02:53:04;93445.94;;;7.89;100.00
5913;BME280;2982;42.684;23.356;2023-04-04T02:55:29;93434.31;;;7.74;100.00
5913;BME280;2982;42.684;23.356;2023-04-04T02:57:55;93412.06;;;7.67;100.00
5913;BME280;2982;42.684;23.356;2023-04-04T03:00:20;93441.00;;;7.88;100.00
5913;BME280;2982;42.684;23.356;2023-04-04T03:02:52;93442.28;;;7.81;100.00
5913;BME280;2982;42.684;23.356;2023-04-04T03:05:17;93426.44;;;7.79;100.00
5913;BME280;2982;42.684;23.356;2023-04-04T03:07:43;93418.22;;;7.75;100.00
5913;BME280;2982;42.684;23.356;2023-04-04T03:10:08;93433.59;;;7.85;100.00
5913;BME280;2982;42.684;23.356;2023-04-04T03:12:33;93408.63;;;7.80;100.00
5913;BME280;2982;42.684;23.356;2023-04-04T03:14:58;93435.91;;;8.01;100.00
5913;BME280;2982;42.684;23.356;2023-04-04T03:17:24;93429.66;;;8.06;100.00
5913;BME280;2982;42.684;23.356;2023-04-04T03:19:49;93435.22;;;8.11;100.00
5913;BME280;2982;42.684;23.356;2023-04-04T03:22:15;93422.66;;;8.10;100.00
5913;BME280;2982;42.684;23.356;2023-04-04T03:24:40;93436.81;;;8.25;100.00
5913;BME280;2982;42.684;23.356;2023-04-04T03:27:05;93438.72;;;8.21;100.00
5913;BME280;2982;42.684;23.356;2023-04-04T03:29:30;93434.88;;;8.28;100.00
5913;BME280;2982;42.684;23.356;2023-04-04T03:31:56;93430.56;;;8.30;100.00
5913;BME280;2982;42.684;23.356;2023-04-04T03:34:21;93429.63;;;8.31;100.00
5913;BME280;2982;42.684;23.356;2023-04-04T03:36:46;93441.78;;;8.39;100.00
5913;BME280;2982;42.684;23.356;2023-04-04T03:39:13;93433.75;;;8.45;100.00
5913;BME280;2982;42.684;23.356;2023-04-04T03:41:38;93444.50;;;8.49;100.00
5913;BME280;2982;42.684;23.356;2023-04-04T03:44:04;93449.66;;;8.47;100.00
5913;BME280;2982;42.684;23.356;2023-04-04T03:46:29;93421.53;;;8.39;100.00
5913;BME280;2982;42.684;23.356;2023-04-04T03:48:54;93435.97;;;8.50;100.00
5913;BME280;2982;42.684;23.356;2023-04-04T03:51:23;93443.97;;;8.56;100.00
5913;BME280;2982;42.684;23.356;2023-04-04T03:53:49;93437.50;;;8.52;100.00
5913;BME280;2982;42.684;23.356;2023-04-04T03:56:14;93437.00;;;8.47;100.00
5913;BME280;2982;42.684;23.356;2023-04-04T03:58:39;93438.91;;;8.56;100.00
5913;BME280;2982;42.684;23.356;2023-04-04T04:01:04;93439.63;;;8.58;100.00
5913;BME280;2982;42.684;23.356;2023-04-04T04:03:30;93444.25;;;8.64;100.00
5913;BME280;2982;42.684;23.356;2023-04-04T04:05:55;93435.84;;;8.64;100.00
5913;BME280;2982;42.684;23.356;2023-04-04T04:08:20;93428.63;;;8.70;100.00
5913;BME280;2982;42.684;23.356;2023-04-04T04:10:46;93438.66;;;8.72;100.00
5913;BME280;2982;42.684;23.356;2023-04-04T04:13:11;93443.59;;;8.73;100.00
5913;BME280;2982;42.684;23.356;2023-04-04T04:15:36;93442.59;;;8.76;100.00
5913;BME280;2982;42.684;23.356;2023-04-04T04:18:02;93442.38;;;8.79;100.00
5913;BME280;2982;42.684;23.356;2023-04-04T04:20:27;93440.66;;;8.79;100.00
5913;BME280;2982;42.684;23.356;2023-04-04T04:23:01;93432.19;;;8.68;100.00
5913;BME280;2982;42.684;23.356;2023-04-04T04:25:31;93449.13;;;8.67;100.00
5913;BME280;2982;42.684;23.356;2023-04-04T04:27:57;93453.22;;;8.68;100.00
5913;BME280;2982;42.684;23.356;2023-04-04T04:30:22;93424.03;;;8.52;100.00
5913;BME280;2982;42.684;23.356;2023-04-04T04:32:50;93461.44;;;8.72;100.00
5913;BME280;2982;42.684;23.356;2023-04-04T04:35:16;93460.81;;;8.81;100.00
5913;BME280;2982;42.684;23.356;2023-04-04T04:37:41;93463.72;;;8.88;100.00
5913;BME280;2982;42.684;23.356;2023-04-04T04:40:10;93471.59;;;8.96;100.00
5913;BME280;2982;42.684;23.356;2023-04-04T04:42:35;93472.78;;;9.03;100.00
5913;BME280;2982;42.684;23.356;2023-04-04T04:45:02;93455.78;;;8.92;100.00
5913;BME280;2982;42.684;23.356;2023-04-04T04:47:29;93470.78;;;8.95;100.00
5913;BME280;2982;42.684;23.356;2023-04-04T04:49:54;93466.25;;;8.88;100.00
5913;BME280;2982;42.684;23.356;2023-04-04T04:52:19;93480.59;;;9.00;100.00
5913;BME280;2982;42.684;23.356;2023-04-04T04:54:45;93480.97;;;9.06;100.00
5913;BME280;2982;42.684;23.356;2023-04-04T04:57:10;93484.69;;;9.13;100.00
5913;BME280;2982;42.684;23.356;2023-04-04T04:59:35;93487.41;;;9.23;100.00
5913;BME280;2982;42.684;23.356;2023-04-04T05:02:00;93491.44;;;9.25;100.00
5913;BME280;2982;42.684;23.356;2023-04-04T05:04:26;93503.88;;;9.28;100.00
5913;BME280;2982;42.684;23.356;2023-04-04T05:06:51;93501.41;;;9.16;100.00
5913;BME280;2982;42.684;23.356;2023-04-04T05:09:16;93491.72;;;8.97;100.00
5913;BME280;2982;42.684;23.356;2023-04-04T05:11:41;93497.50;;;8.99;100.00
5913;BME280;2982;42.684;23.356;2023-04-04T05:14:07;93521.31;;;8.97;100.00
5913;BME280;2982;42.684;23.356;2023-04-04T05:16:32;93509.78;;;8.93;100.00
5913;BME280;2982;42.684;23.356;2023-04-04T05:18:57;93517.78;;;8.87;100.00
5913;BME280;2982;42.684;23.356;2023-04-04T05:21:23;93517.50;;;8.91;100.00
5913;BME280;2982;42.684;23.356;2023-04-04T05:23:48;93522.56;;;9.15;100.00
5913;BME280;2982;42.684;23.356;2023-04-04T05:26:13;93514.13;;;9.03;100.00
5913;BME280;2982;42.684;23.356;2023-04-04T05:28:39;93507.09;;;9.07;100.00
5913;BME280;2982;42.684;23.356;2023-04-04T05:31:04;93522.69;;;9.13;100.00
5913;BME280;2982;42.684;23.356;2023-04-04T05:33:29;93521.28;;;9.09;100.00
5913;BME280;2982;42.684;23.356;2023-04-04T05:35:54;93525.97;;;9.03;100.00
5913;BME280;2982;42.684;23.356;2023-04-04T05:38:20;93531.09;;;9.14;100.00
5913;BME280;2982;42.684;23.356;2023-04-04T05:40:45;93527.63;;;9.27;100.00
5913;BME280;2982;42.684;23.356;2023-04-04T05:43:10;93517.56;;;9.26;100.00
5913;BME280;2982;42.684;23.356;2023-04-04T05:45:35;93531.13;;;9.38;100.00
5913;BME280;2982;42.684;23.356;2023-04-04T05:48:01;93514.50;;;9.34;100.00
5913;BME280;2982;42.684;23.356;2023-04-04T05:50:26;93539.84;;;9.57;100.00
5913;BME280;2982;42.684;23.356;2023-04-04T05:52:54;93526.72;;;9.63;100.00
5913;BME280;2982;42.684;23.356;2023-04-04T05:55:20;93542.28;;;9.59;100.00
5913;BME280;2982;42.684;23.356;2023-04-04T05:57:49;93541.28;;;9.49;100.00
5913;BME280;2982;42.684;23.356;2023-04-04T06:00:15;93537.44;;;9.56;100.00
5913;BME280;2982;42.684;23.356;2023-04-04T06:02:41;93538.00;;;9.59;100.00
5913;BME280;2982;42.684;23.356;2023-04-04T06:05:07;93528.09;;;9.56;100.00
5913;BME280;2982;42.684;23.356;2023-04-04T06:07:32;93531.53;;;9.79;100.00
5913;BME280;2982;42.684;23.356;2023-04-04T06:09:57;93552.47;;;10.05;100.00
5913;BME280;2982;42.684;23.356;2023-04-04T06:12:23;93553.09;;;10.20;100.00
5913;BME280;2982;42.684;23.356;2023-04-04T06:14:48;93559.00;;;10.31;100.00
5913;BME280;2982;42.684;23.356;2023-04-04T06:17:13;93555.00;;;10.40;100.00
5913;BME280;2982;42.684;23.356;2023-04-04T06:19:38;93559.59;;;10.35;100.00
5913;BME280;2982;42.684;23.356;2023-04-04T06:22:04;93563.06;;;10.34;100.00
5913;BME280;2982;42.684;23.356;2023-04-04T06:24:29;93558.28;;;10.18;100.00
5913;BME280;2982;42.684;23.356;2023-04-04T06:26:54;93560.81;;;10.18;100.00
5913;BME280;2982;42.684;23.356;2023-04-04T06:29:19;93564.81;;;10.09;100.00
5913;BME280;2982;42.684;23.356;2023-04-04T06:31:45;93556.53;;;10.07;100.00
5913;BME280;2982;42.684;23.356;2023-04-04T06:34:10;93574.22;;;10.20;100.00
5913;BME280;2982;42.684;23.356;2023-04-04T06:36:35;93578.63;;;10.29;100.00
5913;BME280;2982;42.684;23.356;2023-04-04T06:39:00;93583.66;;;10.18;100.00
5913;BME280;2982;42.684;23.356;2023-04-04T06:41:26;93600.66;;;10.05;100.00
5913;BME280;2982;42.684;23.356;2023-04-04T06:43:51;93590.22;;;9.25;100.00
5913;BME280;2982;42.684;23.356;2023-04-04T06:46:17;93610.88;;;8.70;100.00
5913;BME280;2982;42.684;23.356;2023-04-04T06:48:42;93586.03;;;8.25;100.00
5913;BME280;2982;42.684;23.356;2023-04-04T06:51:08;93611.81;;;8.17;100.00
5913;BME280;2982;42.684;23.356;2023-04-04T06:53:33;93620.53;;;7.74;100.00
5913;BME280;2982;42.684;23.356;2023-04-04T06:55:59;93630.28;;;7.25;100.00
5913;BME280;2982;42.684;23.356;2023-04-04T06:58:25;93629.41;;;6.97;100.00
5913;BME280;2982;42.684;23.356;2023-04-04T07:00:50;93646.28;;;6.83;100.00
5913;BME280;2982;42.684;23.356;2023-04-04T07:03:16;93655.38;;;6.71;100.00
5913;BME280;2982;42.684;23.356;2023-04-04T07:05:41;93663.84;;;6.70;100.00
5913;BME280;2982;42.684;23.356;2023-04-04T07:08:07;93668.75;;;6.29;100.00
5913;BME280;2982;42.684;23.356;2023-04-04T07:10:32;93623.13;;;5.88;100.00
5913;BME280;2982;42.684;23.356;2023-04-04T07:12:58;93674.59;;;6.00;100.00
5913;BME280;2982;42.684;23.356;2023-04-04T07:15:23;93677.50;;;5.76;100.00
5913;BME280;2982;42.684;23.356;2023-04-04T07:17:48;93696.84;;;5.76;100.00
5913;BME280;2982;42.684;23.356;2023-04-04T07:20:14;93701.81;;;5.62;100.00
5913;BME280;2982;42.684;23.356;2023-04-04T07:22:40;93676.84;;;5.42;100.00
5913;BME280;2982;42.684;23.356;2023-04-04T07:25:06;93691.31;;;5.22;100.00
5913;BME280;2982;42.684;23.356;2023-04-04T07:27:31;93707.25;;;5.39;100.00
5913;BME280;2982;42.684;23.356;2023-04-04T07:29:57;93709.34;;;5.30;100.00
5913;BME280;2982;42.684;23.356;2023-04-04T07:32:22;93701.63;;;5.18;100.00
5913;BME280;2982;42.684;23.356;2023-04-04T07:34:47;93720.31;;;5.29;100.00
5913;BME280;2982;42.684;23.356;2023-04-04T07:37:13;93733.59;;;5.16;100.00
5913;BME280;2982;42.684;23.356;2023-04-04T07:39:38;93736.63;;;5.22;100.00
5913;BME280;2982;42.684;23.356;2023-04-04T07:42:04;93741.47;;;5.10;100.00
5913;BME280;2982;42.684;23.356;2023-04-04T07:44:29;93727.88;;;4.97;100.00
5913;BME280;2982;42.684;23.356;2023-04-04T07:46:55;93703.34;;;4.84;100.00
5913;BME280;2982;42.684;23.356;2023-04-04T07:49:20;93712.59;;;4.84;100.00
5913;BME280;2982;42.684;23.356;2023-04-04T07:51:45;93733.88;;;4.77;100.00
5913;BME280;2982;42.684;23.356;2023-04-04T07:54:11;93717.25;;;4.74;100.00
5913;BME280;2982;42.684;23.356;2023-04-04T07:56:38;93717.72;;;4.65;100.00
5913;BME280;2982;42.684;23.356;2023-04-04T07:59:03;93742.13;;;4.80;100.00
5913;BME280;2982;42.684;23.356;2023-04-04T08:01:29;93735.59;;;4.94;100.00
5913;BME280;2982;42.684;23.356;2023-04-04T08:03:54;93688.06;;;4.55;100.00
5913;BME280;2982;42.684;23.356;2023-04-04T08:06:19;93720.09;;;4.51;100.00
5913;BME280;2982;42.684;23.356;2023-04-04T08:08:45;93669.09;;;4.15;100.00
5913;BME280;2982;42.684;23.356;2023-04-04T08:11:10;93771.03;;;4.89;100.00
5913;BME280;2982;42.684;23.356;2023-04-04T08:13:35;93701.75;;;4.32;100.00
5913;BME280;2982;42.684;23.356;2023-04-04T08:16:01;93768.22;;;4.78;100.00
5913;BME280;2982;42.684;23.356;2023-04-04T08:18:26;93739.53;;;4.65;100.00
5913;BME280;2982;42.684;23.356;2023-04-04T08:20:51;93753.75;;;4.66;100.00
5913;BME280;2982;42.684;23.356;2023-04-04T08:23:16;93772.00;;;4.86;100.00
5913;BME280;2982;42.684;23.356;2023-04-04T08:25:42;93793.66;;;5.06;100.00
5913;BME280;2982;42.684;23.356;2023-04-04T08:28:07;93791.44;;;5.17;100.00
5913;BME280;2982;42.684;23.356;2023-04-04T08:30:32;93793.50;;;5.09;100.00
5913;BME280;2982;42.684;23.356;2023-04-04T08:32:58;93804.97;;;5.15;100.00
5913;BME280;2982;42.684;23.356;2023-04-04T08:35:23;93779.19;;;4.94;100.00
5913;BME280;2982;42.684;23.356;2023-04-04T08:37:48;93800.38;;;5.06;100.00
5913;BME280;2982;42.684;23.356;2023-04-04T08:40:14;93801.16;;;4.73;100.00
5913;BME280;2982;42.684;23.356;2023-04-04T08:42:41;93807.44;;;4.65;100.00
5913;BME280;2982;42.684;23.356;2023-04-04T08:45:07;93742.47;;;4.21;100.00
5913;BME280;2982;42.684;23.356;2023-04-04T08:47:32;93756.72;;;4.21;100.00
5913;BME280;2982;42.684;23.356;2023-04-04T08:49:59;93730.78;;;4.03;100.00
5913;BME280;2982;42.684;23.356;2023-04-04T08:52:26;93835.66;;;4.53;100.00
5913;BME280;2982;42.684;23.356;2023-04-04T08:54:52;93818.81;;;4.55;100.00
5913;BME280;2982;42.684;23.356;2023-04-04T08:57:19;93778.03;;;4.31;100.00
5913;BME280;2982;42.684;23.356;2023-04-04T08:59:45;93818.66;;;4.58;100.00
5913;BME280;2982;42.684;23.356;2023-04-04T09:02:15;93837.47;;;4.68;100.00
5913;BME280;2982;42.684;23.356;2023-04-04T09:04:45;93843.91;;;4.73;100.00
5913;BME280;2982;42.684;23.356;2023-04-04T09:07:12;93835.16;;;4.63;100.00
5913;BME280;2982;42.684;23.356;2023-04-04T09:09:39;93848.22;;;4.53;100.00
5913;BME280;2982;42.684;23.356;2023-04-04T09:12:05;93831.38;;;4.37;100.00
5913;BME280;2982;42.684;23.356;2023-04-04T09:14:32;93852.59;;;4.49;100.00
5913;BME280;2982;42.684;23.356;2023-04-04T09:16:59;93836.00;;;4.28;100.00
5913;BME280;2982;42.684;23.356;2023-04-04T09:19:24;93849.84;;;4.36;100.00
5913;BME280;2982;42.684;23.356;2023-04-04T09:21:50;93843.25;;;4.34;100.00
5913;BME280;2982;42.684;23.356;2023-04-04T09:24:27;93856.81;;;4.13;100.00
5913;BME280;2982;42.684;23.356;2023-04-04T09:27:00;93819.38;;;3.88;100.00
5913;BME280;2982;42.684;23.356;2023-04-04T09:29:26;93861.38;;;4.05;100.00
5913;BME280;2982;42.684;23.356;2023-04-04T09:31:51;93857.16;;;4.05;100.00
5913;BME280;2982;42.684;23.356;2023-04-04T09:34:18;93860.69;;;4.01;100.00
5913;BME280;2982;42.684;23.356;2023-04-04T09:36:44;93786.91;;;3.66;100.00
5913;BME280;2982;42.684;23.356;2023-04-04T09:39:10;93859.88;;;4.19;100.00
5913;BME280;2982;42.684;23.356;2023-04-04T09:41:38;93865.53;;;4.41;100.00
5913;BME280;2982;42.684;23.356;2023-04-04T09:44:05;93866.88;;;4.49;100.00
5913;BME280;2982;42.684;23.356;2023-04-04T09:46:30;93859.25;;;4.50;100.00
5913;BME280;2982;42.684;23.356;2023-04-04T09:48:56;93825.56;;;4.18;100.00
5913;BME280;2982;42.684;23.356;2023-04-04T09:51:24;93862.94;;;4.79;100.00
5913;BME280;2982;42.684;23.356;2023-04-04T09:53:57;93867.84;;;4.99;100.00
5913;BME280;2982;42.684;23.356;2023-04-04T09:56:22;93835.31;;;4.95;100.00
5913;BME280;2982;42.684;23.356;2023-04-04T09:58:48;93861.75;;;5.03;100.00
5913;BME280;2982;42.684;23.356;2023-04-04T10:01:13;93860.88;;;5.21;100.00
5913;BME280;2982;42.684;23.356;2023-04-04T10:03:39;93859.88;;;5.41;100.00
5913;BME280;2982;42.684;23.356;2023-04-04T10:06:06;93868.00;;;5.79;100.00
5913;BME280;2982;42.684;23.356;2023-04-04T10:08:32;93860.38;;;5.81;100.00
5913;BME280;2982;42.684;23.356;2023-04-04T10:10:59;93875.44;;;5.65;100.00
5913;BME280;2982;42.684;23.356;2023-04-04T10:13:29;93807.75;;;4.93;100.00
5913;BME280;2982;42.684;23.356;2023-04-04T10:15:56;93857.53;;;5.21;100.00
5913;BME280;2982;42.684;23.356;2023-04-04T10:18:27;93858.34;;;5.04;100.00
5913;BME280;2982;42.684;23.356;2023-04-04T10:20:54;93864.47;;;5.33;100.00
5913;BME280;2982;42.684;23.356;2023-04-04T10:23:23;93898.47;;;5.24;100.00
5913;BME280;2982;42.684;23.356;2023-04-04T10:25:49;93883.16;;;5.12;100.00
5913;BME280;2982;42.684;23.356;2023-04-04T10:28:18;93785.38;;;4.35;100.00
5913;BME280;2982;42.684;23.356;2023-04-04T10:30:49;93873.06;;;4.77;100.00
5913;BME280;2982;42.684;23.356;2023-04-04T10:33:23;93919.97;;;4.78;100.00
5913;BME280;2982;42.684;23.356;2023-04-04T10:35:53;93910.75;;;4.60;100.00
5913;BME280;2982;42.684;23.356;2023-04-04T10:38:23;93894.66;;;4.64;100.00
5913;BME280;2982;42.684;23.356;2023-04-04T10:40:52;93896.69;;;4.92;100.00
5913;BME280;2982;42.684;23.356;2023-04-04T10:43:24;93912.59;;;5.10;100.00
5913;BME280;2982;42.684;23.356;2023-04-04T10:45:49;93883.78;;;4.81;100.00
5913;BME280;2982;42.684;23.356;2023-04-04T10:48:15;93917.25;;;5.00;100.00
5913;BME280;2982;42.684;23.356;2023-04-04T10:50:41;93851.66;;;4.69;100.00
5913;BME280;2982;42.684;23.356;2023-04-04T10:53:07;93898.66;;;4.85;100.00
5913;BME280;2982;42.684;23.356;2023-04-04T10:55:32;93859.91;;;4.36;100.00
5913;BME280;2982;42.684;23.356;2023-04-04T10:57:59;93900.03;;;4.57;100.00
5913;BME280;2982;42.684;23.356;2023-04-04T11:00:25;93923.50;;;4.57;100.00
5913;BME280;2982;42.684;23.356;2023-04-04T11:02:55;93919.75;;;4.47;100.00
5913;BME280;2982;42.684;23.356;2023-04-04T11:05:33;93908.66;;;4.70;100.00
5913;BME280;2982;42.684;23.356;2023-04-04T11:08:03;93921.44;;;4.47;100.00
5913;BME280;2982;42.684;23.356;2023-04-04T11:12:57;93915.81;;;4.41;100.00
5913;BME280;2982;42.684;23.356;2023-04-04T11:15:24;93946.28;;;4.71;100.00
5913;BME280;2982;42.684;23.356;2023-04-04T11:18:04;93914.97;;;4.60;100.00
5913;BME280;2982;42.684;23.356;2023-04-04T11:20:31;93944.72;;;4.69;100.00
5913;BME280;2982;42.684;23.356;2023-04-04T11:23:24;93914.03;;;4.43;100.00
5913;BME280;2982;42.684;23.356;2023-04-04T11:28:25;93944.34;;;4.59;100.00
5913;BME280;2982;42.684;23.356;2023-04-04T11:34:06;93949.38;;;4.59;100.00
5913;BME280;2982;42.684;23.356;2023-04-04T11:39:08;93925.41;;;4.52;100.00
5913;BME280;2982;42.684;23.356;2023-04-04T11:44:27;93949.91;;;4.66;100.00
5913;BME280;2982;42.684;23.356;2023-04-04T11:49:40;93938.84;;;4.32;100.00
5913;BME280;2982;42.684;23.356;2023-04-04T11:52:08;93938.28;;;4.44;100.00
5913;BME280;2982;42.684;23.356;2023-04-04T11:54:36;93880.78;;;4.01;100.00
5913;BME280;2982;42.684;23.356;2023-04-04T11:57:02;93918.19;;;4.44;100.00
5913;BME280;2982;42.684;23.356;2023-04-04T11:59:29;93638.19;;;2.67;100.00
5913;BME280;2982;42.684;23.356;2023-04-04T12:01:55;93890.22;;;4.33;100.00
5913;BME280;2982;42.684;23.356;2023-04-04T12:04:20;93959.97;;;4.66;100.00
5913;BME280;2982;42.684;23.356;2023-04-04T12:06:49;93917.38;;;4.25;100.00
5913;BME280;2982;42.684;23.356;2023-04-04T12:09:15;93818.16;;;3.40;100.00
5913;BME280;2982;42.684;23.356;2023-04-04T12:11:40;93893.25;;;3.84;100.00
5913;BME280;2982;42.684;23.356;2023-04-04T12:14:22;93957.69;;;4.24;100.00
5913;BME280;2982;42.684;23.356;2023-04-04T12:16:50;93890.41;;;3.73;100.00
5913;BME280;2982;42.684;23.356;2023-04-04T12:19:16;93831.44;;;3.42;100.00
5913;BME280;2982;42.684;23.356;2023-04-04T12:21:42;93940.91;;;4.24;100.00
5913;BME280;2982;42.684;23.356;2023-04-04T12:24:07;93863.28;;;3.61;100.00
5913;BME280;2982;42.684;23.356;2023-04-04T12:26:35;93891.53;;;3.66;100.00
5913;BME280;2982;42.684;23.356;2023-04-04T12:29:01;93962.84;;;3.82;100.00
5913;BME280;2982;42.684;23.356;2023-04-04T12:31:27;93921.91;;;3.60;100.00
5913;BME280;2982;42.684;23.356;2023-04-04T12:33:52;93958.88;;;3.96;100.00
5913;BME280;2982;42.684;23.356;2023-04-04T12:36:18;93960.06;;;3.88;100.00
5913;BME280;2982;42.684;23.356;2023-04-04T12:39:00;93949.31;;;3.84;100.00
5913;BME280;2982;42.684;23.356;2023-04-04T12:41:26;93970.81;;;3.91;100.00
5913;BME280;2982;42.684;23.356;2023-04-04T12:44:02;93970.81;;;3.71;100.00
5913;BME280;2982;42.684;23.356;2023-04-04T12:46:34;93958.91;;;3.56;100.00
5913;BME280;2982;42.684;23.356;2023-04-04T12:48:59;93958.69;;;3.20;100.00
5913;BME280;2982;42.684;23.356;2023-04-04T12:51:31;93945.16;;;3.24;100.00
5913;BME280;2982;42.684;23.356;2023-04-04T12:53:57;93974.03;;;3.34;100.00
5913;BME280;2982;42.684;23.356;2023-04-04T12:56:25;93952.19;;;3.16;100.00
5913;BME280;2982;42.684;23.356;2023-04-04T12:58:52;93955.28;;;3.01;100.00
5913;BME280;2982;42.684;23.356;2023-04-04T13:01:19;93961.94;;;3.02;100.00
5913;BME280;2982;42.684;23.356;2023-04-04T13:03:45;93998.53;;;3.07;100.00
5913;BME280;2982;42.684;23.356;2023-04-04T13:06:15;93984.56;;;3.00;100.00
5913;BME280;2982;42.684;23.356;2023-04-04T13:08:53;93995.38;;;3.02;100.00
5913;BME280;2982;42.684;23.356;2023-04-04T13:11:19;93980.50;;;2.98;100.00
5913;BME280;2982;42.684;23.356;2023-04-04T13:13:44;94005.88;;;3.12;100.00
5913;BME280;2982;42.684;23.356;2023-04-04T13:16:12;94013.03;;;3.21;100.00
5913;BME280;2982;42.684;23.356;2023-04-04T13:18:42;94010.41;;;3.02;100.00
5913;BME280;2982;42.684;23.356;2023-04-04T13:21:09;94010.47;;;3.01;100.00
5913;BME280;2982;42.684;23.356;2023-04-04T13:23:36;93965.16;;;2.62;100.00